PAL498 RPVM-RJBB
Flight info
| Callsign | PAL498 |
|---|---|
| Flight time | N/A |
| Altitude | 39000 |
| Route | POXOS4P POXOS G578 GURAG A590 BUBDO/N0471F400 A597 TAPOP Y46 EVERT |
| Aircraft | A333/H-SDE3GHIJ2J3J5M1RVWXY/LB2D1 |
Departure
| Time | 2026-05-04 07:26 |
|---|---|
| Airport | Mactan Cebu International Airport (RPVM) |
Arrival
| Time | N/A |
|---|---|
| Airport | Kansai International Airport (RJBB) |
| Time | Latitude | Longitude | Altitude | Speed | Heading |
|---|---|---|---|---|---|
| 2026-05-04 07:12 | 10.31403 | 123.97844 | 45 ft | 0 kts | 314° |
| 2026-05-04 07:13 | 10.31398 | 123.97849 | 45 ft | 0 kts | 314° |
| 2026-05-04 07:13 | 10.31389 | 123.97859 | 45 ft | 2 kts | 301° |
| 2026-05-04 07:14 | 10.31386 | 123.97918 | 45 ft | 2 kts | 240° |
| 2026-05-04 07:14 | 10.31394 | 123.97930 | 45 ft | 0 kts | 227° |
| 2026-05-04 07:15 | 10.31397 | 123.97933 | 45 ft | 0 kts | 225° |
| 2026-05-04 07:18 | 10.31392 | 123.97928 | 45 ft | 2 kts | 225° |
| 2026-05-04 07:18 | 10.31375 | 123.97911 | 45 ft | 4 kts | 220° |
| 2026-05-04 07:18 | 10.31340 | 123.97901 | 45 ft | 6 kts | 172° |
| 2026-05-04 07:19 | 10.31298 | 123.97926 | 45 ft | 7 kts | 137° |
| 2026-05-04 07:19 | 10.31258 | 123.97965 | 45 ft | 6 kts | 138° |
| 2026-05-04 07:19 | 10.31215 | 123.97977 | 45 ft | 7 kts | 188° |
| 2026-05-04 07:19 | 10.31167 | 123.97945 | 45 ft | 9 kts | 223° |
| 2026-05-04 07:20 | 10.31117 | 123.97897 | 45 ft | 10 kts | 224° |
| 2026-05-04 07:20 | 10.31061 | 123.97840 | 45 ft | 11 kts | 225° |
| 2026-05-04 07:20 | 10.30999 | 123.97777 | 45 ft | 13 kts | 225° |
| 2026-05-04 07:20 | 10.30932 | 123.97709 | 45 ft | 14 kts | 225° |
| 2026-05-04 07:22 | 10.30375 | 123.97150 | 45 ft | 17 kts | 224° |
| 2026-05-04 07:22 | 10.30288 | 123.97064 | 45 ft | 17 kts | 225° |
| 2026-05-04 07:23 | 10.30199 | 123.96975 | 45 ft | 17 kts | 225° |
| 2026-05-04 07:23 | 10.30109 | 123.96885 | 45 ft | 18 kts | 225° |
| 2026-05-04 07:23 | 10.30018 | 123.96795 | 45 ft | 18 kts | 224° |
| 2026-05-04 07:23 | 10.29946 | 123.96723 | 45 ft | 9 kts | 220° |
| 2026-05-04 07:24 | 10.29887 | 123.96709 | 45 ft | 9 kts | 161° |
| 2026-05-04 07:24 | 10.29833 | 123.96757 | 45 ft | 10 kts | 134° |
| 2026-05-04 07:24 | 10.29778 | 123.96814 | 45 ft | 11 kts | 135° |
| 2026-05-04 07:24 | 10.29727 | 123.96866 | 45 ft | 3 kts | 134° |
| 2026-05-04 07:25 | 10.29715 | 123.96892 | 45 ft | 4 kts | 89° |
| 2026-05-04 07:26 | 10.32661 | 123.99904 | 1367 ft | 148 kts | 44° |
| 2026-05-04 07:27 | 10.33387 | 124.00627 | 1855 ft | 146 kts | 45° |
| 2026-05-04 07:27 | 10.34105 | 124.01407 | 2078 ft | 157 kts | 48° |
| 2026-05-04 07:27 | 10.34870 | 124.02271 | 2312 ft | 170 kts | 49° |
| 2026-05-04 07:27 | 10.35683 | 124.03192 | 2558 ft | 183 kts | 49° |
| 2026-05-04 07:28 | 10.36570 | 124.04199 | 2820 ft | 197 kts | 49° |
| 2026-05-04 07:28 | 10.37515 | 124.05272 | 3068 ft | 212 kts | 49° |
| 2026-05-04 07:28 | 10.38535 | 124.06431 | 3340 ft | 228 kts | 49° |
| 2026-05-04 07:28 | 10.39640 | 124.07686 | 3627 ft | 244 kts | 49° |
| 2026-05-04 07:29 | 10.40806 | 124.09010 | 3944 ft | 260 kts | 49° |
| 2026-05-04 07:29 | 10.42032 | 124.10399 | 4557 ft | 264 kts | 49° |
| 2026-05-04 07:29 | 10.43249 | 124.11779 | 5262 ft | 266 kts | 49° |
| 2026-05-04 07:29 | 10.44475 | 124.13171 | 5954 ft | 267 kts | 49° |
| 2026-05-04 07:30 | 10.45724 | 124.14589 | 6625 ft | 270 kts | 49° |
| 2026-05-04 07:30 | 10.46973 | 124.16008 | 7270 ft | 273 kts | 49° |
| 2026-05-04 07:30 | 10.48261 | 124.17470 | 7907 ft | 277 kts | 49° |
| 2026-05-04 07:30 | 10.49548 | 124.18932 | 8494 ft | 282 kts | 49° |
| 2026-05-04 07:31 | 10.50857 | 124.20418 | 9099 ft | 286 kts | 49° |
| 2026-05-04 07:31 | 10.52185 | 124.21928 | 9707 ft | 289 kts | 49° |
| 2026-05-04 07:33 | 10.62799 | 124.33987 | 12597 ft | 357 kts | 50° |
| 2026-05-04 07:33 | 10.64473 | 124.35888 | 13189 ft | 359 kts | 50° |
| 2026-05-04 07:33 | 10.66128 | 124.37771 | 13763 ft | 361 kts | 50° |
| 2026-05-04 07:33 | 10.67795 | 124.39668 | 14316 ft | 364 kts | 50° |
| 2026-05-04 07:34 | 10.69484 | 124.41594 | 14854 ft | 366 kts | 50° |
| 2026-05-04 07:34 | 10.71201 | 124.43548 | 15386 ft | 369 kts | 50° |
| 2026-05-04 07:34 | 10.72897 | 124.45480 | 15920 ft | 371 kts | 50° |
| 2026-05-04 07:34 | 10.74637 | 124.47463 | 16444 ft | 374 kts | 50° |
| 2026-05-04 07:35 | 10.76360 | 124.49427 | 16965 ft | 376 kts | 50° |
| 2026-05-04 07:35 | 10.78114 | 124.51427 | 17483 ft | 378 kts | 50° |
| 2026-05-04 07:35 | 10.79874 | 124.53432 | 17967 ft | 381 kts | 50° |
| 2026-05-04 07:35 | 10.81630 | 124.55434 | 18440 ft | 384 kts | 50° |
| 2026-05-04 07:36 | 10.83436 | 124.57492 | 18939 ft | 387 kts | 50° |
| 2026-05-04 07:36 | 10.85217 | 124.59525 | 19407 ft | 390 kts | 50° |
| 2026-05-04 07:38 | 10.98236 | 124.74269 | 22444 ft | 410 kts | 49° |
| 2026-05-04 07:38 | 11.00148 | 124.76433 | 22842 ft | 413 kts | 49° |
| 2026-05-04 07:38 | 11.02085 | 124.78625 | 23257 ft | 415 kts | 49° |
| 2026-05-04 07:38 | 11.04010 | 124.80805 | 23637 ft | 418 kts | 49° |
| 2026-05-04 07:39 | 11.05953 | 124.83008 | 24029 ft | 421 kts | 49° |
| 2026-05-04 07:39 | 11.07931 | 124.85251 | 24403 ft | 423 kts | 49° |
| 2026-05-04 07:39 | 11.09894 | 124.87478 | 24753 ft | 426 kts | 49° |
| 2026-05-04 07:39 | 11.11886 | 124.89739 | 25102 ft | 429 kts | 49° |
| 2026-05-04 07:40 | 11.13879 | 124.92002 | 25451 ft | 432 kts | 49° |
| 2026-05-04 07:40 | 11.15886 | 124.94281 | 25791 ft | 435 kts | 49° |
| 2026-05-04 07:40 | 11.17920 | 124.96589 | 26131 ft | 437 kts | 49° |
| 2026-05-04 07:40 | 11.19947 | 124.98888 | 26456 ft | 440 kts | 49° |
| 2026-05-04 07:41 | 11.22201 | 125.01049 | 26759 ft | 444 kts | 39° |
| 2026-05-04 07:41 | 11.24812 | 125.02749 | 27074 ft | 448 kts | 28° |
| 2026-05-04 07:41 | 11.27690 | 125.03955 | 27377 ft | 452 kts | 19° |
| 2026-05-04 07:41 | 11.30703 | 125.04867 | 27679 ft | 454 kts | 17° |
| 2026-05-04 07:42 | 11.33785 | 125.05753 | 27964 ft | 458 kts | 17° |
| 2026-05-04 07:42 | 11.36843 | 125.06630 | 28237 ft | 460 kts | 17° |
| 2026-05-04 07:42 | 11.39961 | 125.07529 | 28525 ft | 463 kts | 17° |
| 2026-05-04 07:42 | 11.43050 | 125.08425 | 28832 ft | 465 kts | 17° |
| 2026-05-04 07:43 | 11.46201 | 125.09346 | 29132 ft | 467 kts | 17° |
| 2026-05-04 07:43 | 11.49331 | 125.10263 | 29428 ft | 470 kts | 17° |
| 2026-05-04 07:43 | 11.52501 | 125.11193 | 29714 ft | 472 kts | 17° |
| 2026-05-04 07:43 | 11.55662 | 125.12122 | 29998 ft | 475 kts | 17° |
| 2026-05-04 07:44 | 11.58863 | 125.13062 | 30281 ft | 477 kts | 17° |
| 2026-05-04 07:44 | 11.62051 | 125.13998 | 30559 ft | 479 kts | 17° |
| 2026-05-04 07:44 | 11.65255 | 125.14938 | 30848 ft | 481 kts | 16° |
| 2026-05-04 07:44 | 11.68497 | 125.15891 | 31238 ft | 481 kts | 16° |
| 2026-05-04 07:45 | 11.71690 | 125.16830 | 31678 ft | 479 kts | 16° |
| 2026-05-04 07:45 | 11.74920 | 125.17779 | 32109 ft | 478 kts | 16° |
| 2026-05-04 07:45 | 11.78085 | 125.18710 | 32530 ft | 477 kts | 16° |
| 2026-05-04 07:45 | 11.81278 | 125.19648 | 32975 ft | 476 kts | 16° |
| 2026-05-04 07:46 | 11.84460 | 125.20583 | 33434 ft | 475 kts | 16° |
| 2026-05-04 07:46 | 11.87626 | 125.21514 | 33906 ft | 473 kts | 15° |
| 2026-05-04 07:46 | 11.90782 | 125.22443 | 34384 ft | 471 kts | 15° |
| 2026-05-04 07:46 | 11.93949 | 125.23375 | 34848 ft | 469 kts | 15° |
| 2026-05-04 07:47 | 11.97073 | 125.24296 | 35276 ft | 468 kts | 15° |
| 2026-05-04 07:47 | 12.00204 | 125.25217 | 35676 ft | 467 kts | 15° |
| 2026-05-04 07:47 | 12.03348 | 125.26143 | 36048 ft | 466 kts | 15° |
| 2026-05-04 07:49 | 12.25229 | 125.32597 | 37961 ft | 470 kts | 15° |
| 2026-05-04 07:49 | 12.28402 | 125.33534 | 38188 ft | 471 kts | 15° |
| 2026-05-04 07:49 | 12.31532 | 125.34459 | 38399 ft | 472 kts | 15° |
| 2026-05-04 07:50 | 12.34717 | 125.35399 | 38621 ft | 473 kts | 15° |
| 2026-05-04 07:50 | 12.37872 | 125.36331 | 38839 ft | 474 kts | 15° |
| 2026-05-04 07:50 | 12.44228 | 125.38204 | 38864 ft | 475 kts | 15° |
| 2026-05-04 07:51 | 12.50621 | 125.40090 | 38866 ft | 475 kts | 15° |
| 2026-05-04 07:51 | 12.56965 | 125.41964 | 38866 ft | 475 kts | 15° |
| 2026-05-04 07:52 | 12.63314 | 125.43840 | 38863 ft | 474 kts | 15° |
| 2026-05-04 07:52 | 12.69679 | 125.45721 | 38863 ft | 474 kts | 15° |
| 2026-05-04 07:54 | 12.95099 | 125.53245 | 38876 ft | 475 kts | 15° |
| 2026-05-04 07:55 | 13.01428 | 125.55122 | 38881 ft | 475 kts | 14° |
| 2026-05-04 07:55 | 13.07805 | 125.57012 | 38883 ft | 474 kts | 14° |
| 2026-05-04 07:56 | 13.14122 | 125.58888 | 38880 ft | 473 kts | 14° |
| 2026-05-04 07:56 | 13.20475 | 125.60774 | 38880 ft | 474 kts | 14° |
| 2026-05-04 07:57 | 13.26841 | 125.62666 | 38875 ft | 475 kts | 14° |
| 2026-05-04 07:57 | 13.33196 | 125.64560 | 38878 ft | 475 kts | 14° |
| 2026-05-04 07:58 | 13.39516 | 125.66444 | 38878 ft | 475 kts | 14° |
| 2026-05-04 07:58 | 13.45871 | 125.68342 | 38876 ft | 474 kts | 14° |
| 2026-05-04 07:59 | 13.52209 | 125.70235 | 38878 ft | 474 kts | 14° |
| 2026-05-04 07:59 | 13.58548 | 125.72129 | 38877 ft | 473 kts | 15° |
| 2026-05-04 08:00 | 13.64906 | 125.74029 | 38878 ft | 473 kts | 14° |
| 2026-05-04 08:02 | 13.90234 | 125.81612 | 38869 ft | 473 kts | 14° |
| 2026-05-04 08:02 | 13.96551 | 125.83504 | 38861 ft | 474 kts | 14° |
| 2026-05-04 08:03 | 14.02910 | 125.85413 | 38866 ft | 474 kts | 14° |
| 2026-05-04 08:03 | 14.09223 | 125.87309 | 38880 ft | 473 kts | 14° |
| 2026-05-04 08:04 | 14.15569 | 125.89215 | 38878 ft | 473 kts | 14° |
| 2026-05-04 08:04 | 14.21878 | 125.91110 | 38881 ft | 473 kts | 14° |
| 2026-05-04 08:05 | 14.28227 | 125.93018 | 38883 ft | 474 kts | 14° |
| 2026-05-04 08:05 | 14.34571 | 125.94929 | 38884 ft | 474 kts | 14° |
| 2026-05-04 08:06 | 14.40936 | 125.96845 | 38886 ft | 474 kts | 14° |
| 2026-05-04 08:06 | 14.47248 | 125.98747 | 38888 ft | 475 kts | 14° |
| 2026-05-04 08:08 | 14.73067 | 126.04570 | 38897 ft | 474 kts | 9° |
| 2026-05-04 08:11 | 15.02267 | 126.10680 | 38900 ft | 475 kts | 9° |
| 2026-05-04 08:11 | 15.12003 | 126.12722 | 38896 ft | 476 kts | 9° |
| 2026-05-04 08:12 | 15.18484 | 126.14082 | 38896 ft | 477 kts | 9° |
| 2026-05-04 08:12 | 15.25009 | 126.15453 | 38891 ft | 477 kts | 9° |
| 2026-05-04 08:13 | 15.31509 | 126.16818 | 38896 ft | 477 kts | 9° |
| 2026-05-04 08:13 | 15.38042 | 126.18191 | 38895 ft | 478 kts | 9° |
| 2026-05-04 08:14 | 15.44587 | 126.19567 | 38898 ft | 478 kts | 9° |
| 2026-05-04 08:16 | 15.70735 | 126.25079 | 38894 ft | 480 kts | 9° |
| 2026-05-04 08:16 | 15.77319 | 126.26469 | 38896 ft | 480 kts | 8° |
| 2026-05-04 08:17 | 15.83860 | 126.27851 | 38893 ft | 480 kts | 8° |
| 2026-05-04 08:17 | 15.90425 | 126.29237 | 38897 ft | 481 kts | 9° |
| 2026-05-04 08:19 | 16.16799 | 126.34824 | 38898 ft | 482 kts | 8° |
| 2026-05-04 08:20 | 16.23340 | 126.36211 | 38898 ft | 480 kts | 8° |
| 2026-05-04 08:20 | 16.29909 | 126.37605 | 38898 ft | 480 kts | 8° |
| 2026-05-04 08:21 | 16.36447 | 126.38994 | 38898 ft | 479 kts | 8° |
| 2026-05-04 08:21 | 16.43021 | 126.40391 | 38898 ft | 480 kts | 8° |
| 2026-05-04 08:22 | 16.49542 | 126.41777 | 38900 ft | 480 kts | 8° |
| 2026-05-04 08:24 | 16.75706 | 126.47353 | 38915 ft | 477 kts | 8° |
| 2026-05-04 08:24 | 16.82204 | 126.48737 | 38917 ft | 476 kts | 8° |
| 2026-05-04 08:25 | 16.88714 | 126.50128 | 38918 ft | 476 kts | 8° |
| 2026-05-04 08:25 | 16.95230 | 126.51520 | 38917 ft | 476 kts | 8° |
| 2026-05-04 08:27 | 17.21128 | 126.57096 | 38916 ft | 474 kts | 8° |
| 2026-05-04 08:28 | 17.27617 | 126.58514 | 38913 ft | 474 kts | 8° |
| 2026-05-04 08:28 | 17.34103 | 126.59931 | 38912 ft | 475 kts | 8° |
| 2026-05-04 08:29 | 17.40557 | 126.61342 | 38912 ft | 476 kts | 8° |
| 2026-05-04 08:31 | 17.66562 | 126.67034 | 38910 ft | 476 kts | 8° |
| 2026-05-04 08:33 | 17.92539 | 126.72739 | 38917 ft | 477 kts | 8° |
| 2026-05-04 08:35 | 18.18554 | 126.78469 | 38915 ft | 476 kts | 8° |
| 2026-05-04 08:35 | 18.25038 | 126.79899 | 38919 ft | 475 kts | 8° |
| 2026-05-04 08:37 | 18.47721 | 126.84914 | 38917 ft | 475 kts | 8° |
| 2026-05-04 08:38 | 18.54188 | 126.86346 | 38916 ft | 474 kts | 8° |
| 2026-05-04 08:38 | 18.60650 | 126.87779 | 38915 ft | 473 kts | 8° |
| 2026-05-04 08:40 | 18.86431 | 126.93504 | 38917 ft | 474 kts | 8° |
| 2026-05-04 08:41 | 18.92899 | 126.94943 | 38922 ft | 472 kts | 8° |
| 2026-05-04 08:41 | 18.99302 | 126.96371 | 38922 ft | 471 kts | 8° |
| 2026-05-04 08:42 | 19.05739 | 126.97804 | 38932 ft | 471 kts | 8° |
| 2026-05-04 08:42 | 19.12172 | 126.99239 | 38938 ft | 470 kts | 8° |
| 2026-05-04 08:43 | 19.18586 | 127.00671 | 38939 ft | 470 kts | 8° |
| 2026-05-04 08:43 | 19.25008 | 127.02104 | 38939 ft | 471 kts | 8° |
| 2026-05-04 08:44 | 19.31422 | 127.03539 | 38939 ft | 471 kts | 8° |
| 2026-05-04 08:46 | 19.57020 | 127.09274 | 38934 ft | 469 kts | 8° |
| 2026-05-04 08:46 | 19.63411 | 127.10709 | 38932 ft | 468 kts | 8° |
| 2026-05-04 08:47 | 19.69801 | 127.12142 | 38933 ft | 469 kts | 8° |
| 2026-05-04 08:47 | 19.76197 | 127.13580 | 38935 ft | 469 kts | 8° |
| 2026-05-04 08:48 | 19.82591 | 127.15019 | 38935 ft | 469 kts | 8° |
| 2026-05-04 08:48 | 19.88998 | 127.16464 | 38935 ft | 469 kts | 8° |
| 2026-05-04 08:49 | 19.95362 | 127.17898 | 38936 ft | 468 kts | 8° |
| 2026-05-04 08:50 | 20.17709 | 127.22945 | 38938 ft | 469 kts | 8° |
| 2026-05-04 08:51 | 20.24141 | 127.24400 | 38938 ft | 469 kts | 8° |
| 2026-05-04 08:51 | 20.30532 | 127.25845 | 38939 ft | 469 kts | 8° |
| 2026-05-04 08:52 | 20.36880 | 127.27285 | 38939 ft | 469 kts | 8° |
| 2026-05-04 08:52 | 20.43295 | 127.28740 | 38939 ft | 469 kts | 8° |
| 2026-05-04 08:54 | 20.68846 | 127.34548 | 38938 ft | 470 kts | 8° |
| 2026-05-04 08:55 | 20.75222 | 127.36001 | 38936 ft | 470 kts | 8° |
| 2026-05-04 08:55 | 20.81655 | 127.37467 | 38937 ft | 469 kts | 8° |
| 2026-05-04 08:57 | 21.03499 | 127.44958 | 38941 ft | 481 kts | 27° |
| 2026-05-04 09:01 | 21.41200 | 127.75358 | 38939 ft | 487 kts | 34° |
| 2026-05-04 09:01 | 21.46588 | 127.79786 | 38940 ft | 487 kts | 34° |
| 2026-05-04 09:02 | 21.51954 | 127.84201 | 38939 ft | 487 kts | 34° |
| 2026-05-04 09:02 | 21.57333 | 127.88630 | 38942 ft | 488 kts | 34° |
| 2026-05-04 09:03 | 21.62722 | 127.93072 | 38952 ft | 488 kts | 34° |
| 2026-05-04 09:03 | 21.68125 | 127.97530 | 38959 ft | 490 kts | 34° |
| 2026-05-04 09:04 | 21.73547 | 128.02008 | 38959 ft | 490 kts | 34° |
| 2026-05-04 09:04 | 21.78945 | 128.06471 | 38960 ft | 490 kts | 34° |
| 2026-05-04 09:05 | 21.84339 | 128.10934 | 38959 ft | 490 kts | 34° |
| 2026-05-04 09:05 | 21.89726 | 128.15396 | 38960 ft | 490 kts | 34° |
| 2026-05-04 09:06 | 21.95154 | 128.19896 | 38960 ft | 491 kts | 34° |
| 2026-05-04 09:08 | 22.16766 | 128.37860 | 38964 ft | 491 kts | 34° |
| 2026-05-04 09:08 | 22.22176 | 128.42366 | 38961 ft | 491 kts | 34° |
| 2026-05-04 09:09 | 22.27557 | 128.46854 | 38956 ft | 491 kts | 34° |
| 2026-05-04 09:09 | 22.32954 | 128.51361 | 38955 ft | 491 kts | 34° |
| 2026-05-04 09:10 | 22.38378 | 128.55896 | 38953 ft | 492 kts | 34° |
| 2026-05-04 09:10 | 22.43771 | 128.60408 | 38957 ft | 492 kts | 34° |
| 2026-05-04 09:11 | 22.49205 | 128.64960 | 38953 ft | 492 kts | 34° |
| 2026-05-04 09:11 | 22.54593 | 128.69475 | 38952 ft | 492 kts | 35° |
| 2026-05-04 09:12 | 22.59993 | 128.74005 | 38950 ft | 492 kts | 35° |
| 2026-05-04 09:14 | 22.81655 | 128.92236 | 38953 ft | 494 kts | 35° |
| 2026-05-04 09:14 | 22.87072 | 128.96808 | 38958 ft | 494 kts | 35° |
| 2026-05-04 09:15 | 22.92480 | 129.01375 | 38956 ft | 493 kts | 35° |
| 2026-05-04 09:15 | 22.97865 | 129.05930 | 38959 ft | 492 kts | 35° |
| 2026-05-04 09:17 | 23.22991 | 129.25266 | 38973 ft | 492 kts | 32° |
| 2026-05-04 09:18 | 23.28573 | 129.29526 | 38975 ft | 492 kts | 32° |
| 2026-05-04 09:18 | 23.34191 | 129.33817 | 38976 ft | 493 kts | 32° |
| 2026-05-04 09:19 | 23.39793 | 129.38101 | 38978 ft | 493 kts | 32° |
| 2026-05-04 09:19 | 23.45417 | 129.42406 | 38973 ft | 494 kts | 32° |
| 2026-05-04 09:20 | 23.51024 | 129.46703 | 38979 ft | 493 kts | 32° |
| 2026-05-04 09:20 | 23.56633 | 129.51006 | 38981 ft | 494 kts | 32° |
| 2026-05-04 09:21 | 23.62269 | 129.55333 | 38986 ft | 494 kts | 32° |
| 2026-05-04 09:21 | 23.67846 | 129.59624 | 38991 ft | 494 kts | 31° |
| 2026-05-04 09:22 | 23.73457 | 129.63942 | 38990 ft | 494 kts | 31° |
| 2026-05-04 09:22 | 23.79097 | 129.68286 | 38994 ft | 494 kts | 32° |
| 2026-05-04 09:23 | 23.84707 | 129.72615 | 38998 ft | 495 kts | 32° |
| 2026-05-04 09:23 | 23.90294 | 129.76929 | 38999 ft | 495 kts | 32° |
| 2026-05-04 09:25 | 24.12827 | 129.94376 | 39007 ft | 497 kts | 32° |
| 2026-05-04 09:26 | 24.18464 | 129.98752 | 39009 ft | 497 kts | 32° |
| 2026-05-04 09:26 | 24.24091 | 130.03130 | 39009 ft | 497 kts | 32° |
| 2026-05-04 09:27 | 24.29740 | 130.07529 | 39008 ft | 497 kts | 32° |
| 2026-05-04 09:27 | 24.35349 | 130.11899 | 39012 ft | 497 kts | 32° |
| 2026-05-04 09:28 | 24.41028 | 130.16203 | 39019 ft | 497 kts | 30° |
| 2026-05-04 09:28 | 24.46758 | 130.20491 | 39017 ft | 497 kts | 30° |
| 2026-05-04 09:29 | 24.52478 | 130.24786 | 39018 ft | 498 kts | 30° |
| 2026-05-04 09:29 | 24.58192 | 130.29092 | 39017 ft | 498 kts | 30° |
| 2026-05-04 09:30 | 24.63912 | 130.33409 | 39016 ft | 499 kts | 30° |
| 2026-05-04 09:30 | 24.69608 | 130.37712 | 39017 ft | 499 kts | 30° |
| 2026-05-04 09:31 | 24.75343 | 130.42052 | 39018 ft | 500 kts | 30° |
| 2026-05-04 09:31 | 24.81042 | 130.46368 | 39020 ft | 500 kts | 30° |
| 2026-05-04 09:32 | 24.86799 | 130.50735 | 39020 ft | 500 kts | 30° |
| 2026-05-04 09:34 | 25.09671 | 130.68129 | 39021 ft | 501 kts | 30° |
| 2026-05-04 09:34 | 25.15412 | 130.72507 | 39025 ft | 501 kts | 31° |
| 2026-05-04 09:35 | 25.21139 | 130.76878 | 39028 ft | 502 kts | 31° |
| 2026-05-04 09:35 | 25.26877 | 130.81268 | 39029 ft | 502 kts | 31° |
| 2026-05-04 09:37 | 25.49848 | 130.98881 | 39031 ft | 502 kts | 30° |
| 2026-05-04 09:38 | 25.55596 | 131.03302 | 39035 ft | 504 kts | 30° |
| 2026-05-04 09:38 | 25.61321 | 131.07710 | 39035 ft | 504 kts | 30° |
| 2026-05-04 09:39 | 25.67105 | 131.12170 | 39034 ft | 504 kts | 30° |
| 2026-05-04 09:39 | 25.72839 | 131.16597 | 39037 ft | 504 kts | 30° |
| 2026-05-04 09:40 | 25.78589 | 131.21042 | 39037 ft | 503 kts | 30° |
| 2026-05-04 09:40 | 25.84318 | 131.25484 | 39036 ft | 504 kts | 31° |
| 2026-05-04 09:42 | 26.06287 | 131.45200 | 39038 ft | 509 kts | 34° |
| 2026-05-04 09:43 | 26.11763 | 131.50172 | 39036 ft | 509 kts | 34° |
| 2026-05-04 09:43 | 26.17238 | 131.55151 | 39042 ft | 509 kts | 34° |
| 2026-05-04 09:44 | 26.22710 | 131.60132 | 39043 ft | 509 kts | 34° |
| 2026-05-04 09:46 | 26.44618 | 131.80133 | 39037 ft | 511 kts | 35° |
| 2026-05-04 09:46 | 26.50115 | 131.85172 | 39037 ft | 511 kts | 35° |
| 2026-05-04 09:47 | 26.55591 | 131.90196 | 39030 ft | 510 kts | 35° |
| 2026-05-04 09:49 | 26.77608 | 132.10449 | 39049 ft | 513 kts | 35° |
| 2026-05-04 09:51 | 26.96889 | 132.28279 | 39060 ft | 514 kts | 35° |
| 2026-05-04 09:51 | 27.02417 | 132.33405 | 39056 ft | 515 kts | 35° |
| 2026-05-04 09:52 | 27.07925 | 132.38521 | 39055 ft | 515 kts | 35° |
| 2026-05-04 09:52 | 27.13439 | 132.43648 | 39055 ft | 516 kts | 35° |
| 2026-05-04 09:53 | 27.18959 | 132.48787 | 39053 ft | 515 kts | 34° |
| 2026-05-04 09:53 | 27.24469 | 132.53923 | 39051 ft | 516 kts | 34° |
| 2026-05-04 09:54 | 27.29971 | 132.59061 | 39051 ft | 516 kts | 34° |
| 2026-05-04 09:54 | 27.35476 | 132.64208 | 39046 ft | 516 kts | 34° |
| 2026-05-04 09:55 | 27.41003 | 132.69379 | 39043 ft | 517 kts | 35° |
| 2026-05-04 09:55 | 27.46533 | 132.74562 | 39040 ft | 518 kts | 35° |
| 2026-05-04 09:56 | 27.52056 | 132.79747 | 39040 ft | 518 kts | 35° |
| 2026-05-04 09:56 | 27.57601 | 132.84958 | 39040 ft | 519 kts | 35° |
| 2026-05-04 09:57 | 27.63117 | 132.90150 | 39042 ft | 519 kts | 35° |
| 2026-05-04 09:57 | 27.68631 | 132.95348 | 39042 ft | 519 kts | 35° |
| 2026-05-04 09:58 | 27.74172 | 133.00574 | 39040 ft | 520 kts | 35° |
| 2026-05-04 09:58 | 27.79751 | 133.05850 | 39042 ft | 522 kts | 35° |
| 2026-05-04 10:00 | 28.01913 | 133.26939 | 39051 ft | 522 kts | 36° |
| 2026-05-04 10:04 | 28.40718 | 133.64258 | 39062 ft | 525 kts | 35° |
| 2026-05-04 10:04 | 28.46292 | 133.69650 | 39059 ft | 526 kts | 36° |
| 2026-05-04 10:05 | 28.51833 | 133.75018 | 39064 ft | 526 kts | 36° |
| 2026-05-04 10:05 | 28.57420 | 133.80441 | 39065 ft | 527 kts | 35° |
| 2026-05-04 10:06 | 28.62958 | 133.85815 | 39062 ft | 526 kts | 36° |
| 2026-05-04 10:06 | 28.68551 | 133.91249 | 39058 ft | 527 kts | 36° |
| 2026-05-04 10:08 | 28.88002 | 134.10236 | 39063 ft | 529 kts | 35° |
| 2026-05-04 10:08 | 28.93570 | 134.15694 | 39060 ft | 528 kts | 35° |
| 2026-05-04 10:09 | 28.99174 | 134.21188 | 39062 ft | 529 kts | 35° |
| 2026-05-04 10:09 | 29.04754 | 134.26669 | 39066 ft | 529 kts | 35° |
| 2026-05-04 10:10 | 29.10326 | 134.32150 | 39065 ft | 529 kts | 35° |
| 2026-05-04 10:10 | 29.15891 | 134.37634 | 39065 ft | 530 kts | 35° |
| 2026-05-04 10:11 | 29.21458 | 134.43124 | 39063 ft | 530 kts | 35° |
| 2026-05-04 10:11 | 29.27023 | 134.48624 | 39064 ft | 530 kts | 35° |
| 2026-05-04 10:12 | 29.32615 | 134.54156 | 39062 ft | 532 kts | 35° |
| 2026-05-04 10:12 | 29.38189 | 134.59682 | 39064 ft | 532 kts | 34° |
| 2026-05-04 10:13 | 29.43798 | 134.65253 | 39060 ft | 532 kts | 35° |
| 2026-05-04 10:13 | 29.49396 | 134.70813 | 39060 ft | 533 kts | 36° |
| 2026-05-04 10:14 | 29.54979 | 134.76373 | 39059 ft | 533 kts | 35° |
| 2026-05-04 10:16 | 29.77416 | 134.98793 | 39052 ft | 537 kts | 35° |
| 2026-05-04 10:16 | 29.83034 | 135.04436 | 39049 ft | 537 kts | 35° |
| 2026-05-04 10:17 | 29.88656 | 135.10086 | 39044 ft | 538 kts | 35° |
| 2026-05-04 10:19 | 30.11206 | 135.32838 | 39033 ft | 540 kts | 35° |
| 2026-05-04 10:19 | 30.16861 | 135.38484 | 39029 ft | 540 kts | 34° |
| 2026-05-04 10:20 | 30.22587 | 135.44122 | 39029 ft | 538 kts | 34° |
| 2026-05-04 10:20 | 30.28263 | 135.49715 | 39029 ft | 538 kts | 34° |
| 2026-05-04 10:21 | 30.33948 | 135.55341 | 39020 ft | 540 kts | 34° |
| 2026-05-04 10:21 | 30.39648 | 135.60992 | 38998 ft | 541 kts | 34° |
| 2026-05-04 10:22 | 30.48193 | 135.69484 | 39002 ft | 542 kts | 35° |
| 2026-05-04 10:23 | 30.53906 | 135.75176 | 38999 ft | 542 kts | 35° |
| 2026-05-04 10:25 | 30.76626 | 135.97902 | 38997 ft | 542 kts | 35° |
| 2026-05-04 10:25 | 30.82322 | 136.03615 | 38995 ft | 544 kts | 35° |
| 2026-05-04 10:26 | 30.88073 | 136.09401 | 38992 ft | 545 kts | 35° |
| 2026-05-04 10:26 | 30.93756 | 136.15131 | 38986 ft | 544 kts | 35° |
| 2026-05-04 10:27 | 30.99485 | 136.20914 | 38990 ft | 543 kts | 35° |
| 2026-05-04 10:27 | 31.05216 | 136.26697 | 38980 ft | 545 kts | 35° |
| 2026-05-04 10:28 | 31.10905 | 136.32466 | 38982 ft | 544 kts | 35° |